Time;durP1;ratioP1;P1;durP2;ratioP2;P2;SDS_P1;SDS_P2;PMS_P1;PMS_P2;Temp;Humidity;BMP_temperature;BMP_pressure;BME280_temperature;BME280_humidity;BME280_pressure;Samples;Min_cycle;Max_cycle;Signal;HPM_P1;HPM_P2
2023/12/19 00:00:46;;;;;;;75.85;40.80;;;6.30;99.90;;;;;;5073325;27;20454;-76
2023/12/19 00:03:13;;;;;;;83.47;43.45;;;6.40;99.90;;;;;;5074572;28;20031;-78
2023/12/19 00:05:40;;;;;;;68.10;37.90;;;6.40;99.90;;;;;;5074623;28;20375;-74
2023/12/19 00:08:10;;;;;;;72.68;40.30;;;6.40;99.90;;;;;;5077234;28;20040;-80
2023/12/19 00:10:37;;;;;;;75.22;39.97;;;6.40;99.90;;;;;;5043152;27;20035;-77
2023/12/19 00:13:03;;;;;;;79.65;41.20;;;6.40;99.90;;;;;;5074530;27;20028;-79
2023/12/19 00:15:29;;;;;;;74.35;39.97;;;6.40;99.90;;;;;;5073562;28;20041;-76
2023/12/19 00:17:56;;;;;;;73.70;39.47;;;6.40;99.90;;;;;;5091085;28;20042;-76
2023/12/19 00:20:22;;;;;;;71.35;37.20;;;6.40;99.90;;;;;;5058531;28;20490;-74
2023/12/19 00:22:48;;;;;;;87.75;44.20;;;6.40;99.90;;;;;;5055489;28;20031;-79
2023/12/19 00:25:15;;;;;;;80.10;42.90;;;6.40;99.90;;;;;;5073153;28;20038;-79
2023/12/19 00:27:42;;;;;;;79.72;40.58;;;6.40;99.90;;;;;;5059687;28;20039;-80
2023/12/19 00:30:08;;;;;;;78.88;40.88;;;6.40;99.90;;;;;;5092613;28;20032;-78
2023/12/19 00:32:34;;;;;;;75.10;39.42;;;6.40;99.90;;;;;;5071084;28;20032;-78
2023/12/19 00:35:01;;;;;;;75.93;39.78;;;6.40;99.90;;;;;;5059336;28;20657;-76
2023/12/19 00:37:27;;;;;;;95.63;44.47;;;6.40;99.90;;;;;;5074670;27;20370;-77
2023/12/19 00:39:53;;;;;;;77.75;40.17;;;6.40;99.90;;;;;;5075444;28;20044;-78
2023/12/19 00:42:19;;;;;;;74.00;37.83;;;6.40;99.90;;;;;;5059051;28;20042;-79
2023/12/19 00:44:46;;;;;;;71.18;37.92;;;6.40;99.90;;;;;;5089655;27;20055;-74
2023/12/19 00:47:12;;;;;;;67.57;37.10;;;6.40;99.90;;;;;;5093371;28;20032;-77
2023/12/19 00:49:39;;;;;;;76.88;39.90;;;6.40;99.90;;;;;;5073602;28;20502;-78
2023/12/19 00:52:05;;;;;;;75.20;38.78;;;6.40;99.90;;;;;;5073512;28;20474;-78
2023/12/19 00:54:32;;;;;;;67.30;37.35;;;6.40;99.90;;;;;;5091814;28;20027;-76
2023/12/19 00:56:58;;;;;;;76.53;40.15;;;6.40;99.90;;;;;;5088387;28;20032;-78
2023/12/19 00:59:24;;;;;;;82.03;42.40;;;6.50;99.90;;;;;;5071310;28;20040;-78
2023/12/19 01:01:50;;;;;;;74.05;39.90;;;6.50;99.90;;;;;;5106812;27;20482;-76
2023/12/19 01:04:19;;;;;;;75.72;38.70;;;6.50;99.90;;;;;;5059022;28;20032;-76
2023/12/19 01:06:45;;;;;;;72.45;37.10;;;6.50;99.90;;;;;;5058815;28;23106;-79
2023/12/19 01:09:12;;;;;;;93.88;42.72;;;6.50;99.90;;;;;;5077318;28;20043;-77
2023/12/19 01:11:39;;;;;;;77.78;38.83;;;6.50;99.90;;;;;;5044785;28;20031;-79
2023/12/19 01:14:05;;;;;;;89.15;43.35;;;6.50;99.90;;;;;;5077674;28;20027;-73
2023/12/19 01:16:31;;;;;;;80.35;41.17;;;6.50;99.90;;;;;;5060198;28;20027;-76
2023/12/19 01:18:58;;;;;;;81.45;38.25;;;6.50;99.90;;;;;;5074677;28;20569;-77
2023/12/19 01:21:24;;;;;;;92.30;43.22;;;6.50;99.90;;;;;;5075291;28;20062;-76
2023/12/19 01:23:50;;;;;;;84.07;41.83;;;6.50;99.90;;;;;;5079405;28;20027;-78
2023/12/19 01:26:17;;;;;;;88.93;40.38;;;6.60;99.90;;;;;;5076405;28;20039;-78
2023/12/19 01:28:43;;;;;;;71.97;38.28;;;6.60;99.90;;;;;;5063152;28;20036;-78
2023/12/19 01:31:09;;;;;;;80.95;42.10;;;6.60;99.90;;;;;;5076735;28;20490;-80
2023/12/19 01:33:36;;;;;;;78.65;39.38;;;6.60;99.90;;;;;;5059381;28;20058;-80
2023/12/19 01:36:02;;;;;;;80.88;38.55;;;6.60;99.90;;;;;;5059202;28;20039;-79
2023/12/19 01:38:29;;;;;;;79.22;37.17;;;6.60;99.90;;;;;;5074775;28;20032;-74
2023/12/19 01:40:55;;;;;;;92.25;41.50;;;6.60;99.90;;;;;;5077153;28;20032;-81
2023/12/19 01:43:22;;;;;;;84.53;40.05;;;6.60;99.90;;;;;;5040543;28;20406;-81
2023/12/19 01:45:50;;;;;;;83.88;38.40;;;6.60;99.90;;;;;;5090728;28;20031;-81
2023/12/19 01:48:18;;;;;;;72.35;38.63;;;6.70;99.90;;;;;;5073458;28;20558;-77
2023/12/19 01:50:46;;;;;;;79.65;40.20;;;6.60;99.90;;;;;;5057086;28;20043;-81
2023/12/19 01:53:13;;;;;;;96.35;42.10;;;6.60;99.90;;;;;;5075806;28;20035;-75
2023/12/19 01:55:40;;;;;;;84.03;39.80;;;6.60;99.90;;;;;;5072242;28;20487;-80
2023/12/19 01:58:08;;;;;;;81.13;38.97;;;6.60;99.90;;;;;;5055834;28;20054;-79
2023/12/19 02:00:35;;;;;;;77.97;39.33;;;6.60;99.90;;;;;;5089944;28;20466;-79
2023/12/19 02:03:02;;;;;;;69.85;37.10;;;6.60;99.90;;;;;;5089744;28;20027;-81
2023/12/19 02:05:30;;;;;;;76.30;36.88;;;6.60;99.90;;;;;;5059003;28;20036;-78
2023/12/19 02:07:56;;;;;;;85.88;38.17;;;6.70;99.90;;;;;;5038792;28;20032;-80
2023/12/19 02:10:24;;;;;;;79.40;38.28;;;6.70;99.90;;;;;;5092021;27;20043;-79
2023/12/19 02:12:50;;;;;;;93.80;42.38;;;6.70;99.90;;;;;;5077813;28;20027;-83
2023/12/19 02:15:17;;;;;;;73.78;37.08;;;6.70;99.90;;;;;;5095213;28;20034;-80
2023/12/19 02:17:44;;;;;;;75.47;36.53;;;6.70;99.90;;;;;;5092555;27;20055;-83
2023/12/19 02:20:10;;;;;;;96.88;43.05;;;6.70;99.90;;;;;;5077039;28;20459;-82
2023/12/19 02:22:36;;;;;;;74.45;37.13;;;6.70;99.90;;;;;;5089150;27;20028;-80
2023/12/19 02:25:03;;;;;;;79.97;38.90;;;6.70;99.90;;;;;;5090521;28;20023;-80
2023/12/19 02:27:30;;;;;;;72.97;36.33;;;6.70;99.90;;;;;;5101360;27;20043;-80
2023/12/19 02:29:57;;;;;;;70.63;36.63;;;6.70;99.90;;;;;;5091711;27;20437;-76
2023/12/19 02:32:23;;;;;;;94.22;41.88;;;6.70;99.90;;;;;;5055986;28;20035;-81
2023/12/19 02:34:49;;;;;;;78.05;39.08;;;6.70;99.90;;;;;;5094065;28;20038;-74
2023/12/19 02:37:16;;;;;;;71.93;36.70;;;6.70;99.90;;;;;;5059276;28;20039;-80
2023/12/19 02:39:42;;;;;;;64.57;32.75;;;6.70;99.90;;;;;;5076239;28;20035;-77
2023/12/19 02:42:08;;;;;;;78.53;38.50;;;6.70;99.90;;;;;;5094527;28;20454;-80
2023/12/19 02:44:35;;;;;;;89.70;41.20;;;6.70;99.90;;;;;;5059120;28;20035;-81
2023/12/19 02:47:01;;;;;;;87.50;42.50;;;6.70;99.90;;;;;;5075051;28;20410;-76
2023/12/19 02:49:28;;;;;;;76.90;38.67;;;6.70;99.90;;;;;;5075445;28;20335;-80
2023/12/19 02:51:54;;;;;;;77.78;37.70;;;6.70;99.90;;;;;;5059842;28;20027;-80
2023/12/19 02:54:20;;;;;;;79.63;39.50;;;6.70;99.90;;;;;;5078140;28;20032;-81
2023/12/19 02:56:46;;;;;;;81.07;39.75;;;6.70;99.90;;;;;;5093634;27;20027;-84
2023/12/19 02:59:13;;;;;;;70.18;36.55;;;6.70;99.90;;;;;;5062250;28;20035;-75
2023/12/19 03:01:44;;;;;;;70.88;34.70;;;6.70;99.90;;;;;;5093637;28;20031;-82
2023/12/19 03:04:11;;;;;;;80.07;37.20;;;6.70;99.90;;;;;;5095442;27;20781;-83
2023/12/19 03:06:37;;;;;;;70.22;35.72;;;6.70;99.90;;;;;;5041462;28;20497;-78
2023/12/19 03:09:03;;;;;;;68.53;34.22;;;6.80;99.90;;;;;;5076577;28;20035;-81
2023/12/19 03:11:30;;;;;;;77.30;35.63;;;6.70;99.90;;;;;;5061418;28;20035;-77
2023/12/19 03:13:56;;;;;;;78.80;36.47;;;6.70;99.90;;;;;;5076030;28;20032;-78
2023/12/19 03:16:22;;;;;;;74.93;37.50;;;6.70;99.90;;;;;;5098231;27;21502;-78
2023/12/19 03:18:49;;;;;;;74.95;35.33;;;6.70;99.90;;;;;;5082222;28;20117;-80
2023/12/19 03:21:15;;;;;;;84.93;39.67;;;6.70;99.90;;;;;;5081762;28;20034;-78
2023/12/19 03:23:41;;;;;;;71.05;34.38;;;6.70;99.90;;;;;;5075125;28;20028;-78
2023/12/19 03:26:07;;;;;;;77.43;36.20;;;6.80;99.90;;;;;;5058490;28;20032;-75
2023/12/19 03:28:35;;;;;;;69.80;34.33;;;6.80;99.90;;;;;;5107842;27;20040;-80
2023/12/19 03:31:02;;;;;;;81.40;39.08;;;6.80;99.90;;;;;;5071214;28;20537;-81
2023/12/19 03:33:29;;;;;;;80.15;38.65;;;6.80;99.90;;;;;;5073366;28;20467;-74
2023/12/19 03:35:56;;;;;;;89.45;41.63;;;6.80;99.90;;;;;;5075421;27;20523;-79
2023/12/19 03:38:22;;;;;;;86.75;40.30;;;6.80;99.90;;;;;;5070754;28;20032;-79
2023/12/19 03:40:48;;;;;;;88.20;40.28;;;6.80;99.90;;;;;;5058097;27;20031;-78
2023/12/19 03:43:14;;;;;;;124.78;48.97;;;6.80;99.90;;;;;;5073574;28;20039;-81
2023/12/19 03:45:41;;;;;;;83.28;40.60;;;6.80;99.90;;;;;;5076308;28;20023;-75
2023/12/19 03:48:07;;;;;;;84.38;40.30;;;6.80;99.90;;;;;;5073931;28;20023;-81
2023/12/19 03:50:33;;;;;;;83.10;38.13;;;6.80;99.90;;;;;;5037005;28;20036;-80
2023/12/19 03:53:00;;;;;;;85.30;39.45;;;6.80;99.90;;;;;;5071420;28;20038;-78
2023/12/19 03:55:26;;;;;;;94.47;40.58;;;6.90;99.90;;;;;;5072306;27;20545;-80
2023/12/19 03:57:52;;;;;;;91.10;41.65;;;6.80;99.90;;;;;;5086042;27;20040;-74
2023/12/19 04:00:19;;;;;;;89.95;40.35;;;6.90;99.90;;;;;;5078609;28;20030;-79
2023/12/19 04:02:45;;;;;;;85.50;39.50;;;6.90;99.90;;;;;;5092193;28;20422;-77
2023/12/19 04:05:11;;;;;;;91.97;39.08;;;6.90;99.90;;;;;;5094479;27;20058;-79
2023/12/19 04:07:38;;;;;;;82.00;40.10;;;6.90;99.90;;;;;;5058769;28;20036;-80
2023/12/19 04:10:04;;;;;;;77.68;37.17;;;6.90;99.90;;;;;;5094077;27;20036;-76
2023/12/19 04:12:31;;;;;;;66.45;35.08;;;6.90;99.90;;;;;;5074557;28;20042;-82
2023/12/19 04:14:57;;;;;;;77.93;38.13;;;6.90;99.90;;;;;;5058367;28;20045;-80
2023/12/19 04:17:23;;;;;;;62.30;33.08;;;6.90;99.90;;;;;;5058617;28;20032;-80
2023/12/19 04:19:50;;;;;;;84.63;38.30;;;6.90;99.90;;;;;;5058777;28;20040;-82
2023/12/19 04:22:16;;;;;;;73.25;36.67;;;6.90;99.90;;;;;;5075198;28;20032;-79
2023/12/19 04:24:42;;;;;;;65.80;32.97;;;6.90;99.90;;;;;;5076191;28;20622;-81
2023/12/19 04:27:09;;;;;;;70.97;35.38;;;6.80;99.90;;;;;;5058751;28;20040;-79
2023/12/19 04:29:36;;;;;;;60.50;31.63;;;6.90;99.90;;;;;;5045977;28;20407;-80
2023/12/19 04:32:03;;;;;;;53.80;29.50;;;6.90;99.90;;;;;;5076260;28;20032;-76
2023/12/19 04:34:29;;;;;;;56.75;31.08;;;6.90;99.90;;;;;;5091397;28;20047;-81
2023/12/19 04:36:56;;;;;;;58.65;30.67;;;6.90;99.90;;;;;;5061299;28;20352;-80
2023/12/19 04:39:22;;;;;;;71.15;34.58;;;6.90;99.90;;;;;;5055325;27;20036;-82
2023/12/19 04:41:48;;;;;;;62.33;30.92;;;6.90;99.90;;;;;;5056601;28;20043;-81
2023/12/19 04:44:15;;;;;;;58.30;29.83;;;6.90;99.90;;;;;;5073187;28;20027;-81
2023/12/19 04:46:43;;;;;;;64.30;31.92;;;6.90;99.90;;;;;;5072805;28;20039;-78
2023/12/19 04:49:09;;;;;;;61.13;31.95;;;6.90;99.90;;;;;;5089607;28;20046;-78
2023/12/19 04:51:35;;;;;;;46.78;26.42;;;6.90;99.90;;;;;;5089457;27;20509;-84
2023/12/19 04:54:03;;;;;;;44.75;25.13;;;6.90;99.90;;;;;;5060750;28;20028;-85
2023/12/19 04:56:30;;;;;;;44.90;25.52;;;6.90;99.90;;;;;;5076225;28;20039;-81
2023/12/19 04:58:56;;;;;;;48.17;26.40;;;6.90;99.90;;;;;;5059103;28;20361;-83
2023/12/19 05:01:22;;;;;;;40.42;23.10;;;6.90;99.90;;;;;;5076009;28;20043;-75
2023/12/19 05:03:48;;;;;;;36.72;22.15;;;6.90;99.90;;;;;;5091862;28;20032;-85
2023/12/19 05:06:17;;;;;;;43.17;24.02;;;6.90;99.90;;;;;;5074476;28;20109;-84
2023/12/19 05:08:48;;;;;;;37.70;22.13;;;6.90;99.90;;;;;;5060415;28;20027;-87
2023/12/19 05:11:14;;;;;;;43.05;22.77;;;6.90;99.90;;;;;;5058970;28;20040;-87
2023/12/19 05:13:40;;;;;;;38.50;20.77;;;6.90;99.90;;;;;;5070890;28;20046;-78
2023/12/19 05:16:13;;;;;;;34.63;19.48;;;6.90;99.90;;;;;;5063738;28;20804;-80
2023/12/19 05:18:41;;;;;;;32.22;18.38;;;6.90;99.90;;;;;;5092312;28;20028;-79
2023/12/19 05:21:08;;;;;;;36.30;19.90;;;6.90;99.90;;;;;;5072994;28;20027;-74
2023/12/19 05:23:36;;;;;;;36.60;20.23;;;6.90;99.90;;;;;;5056784;28;20031;-82
2023/12/19 05:26:03;;;;;;;26.98;17.33;;;6.90;99.90;;;;;;5093676;28;20027;-80
2023/12/19 05:28:30;;;;;;;36.20;20.52;;;6.90;99.90;;;;;;5074108;28;20047;-81
2023/12/19 05:30:57;;;;;;;36.75;21.40;;;6.90;99.90;;;;;;5071522;28;20046;-79
2023/12/19 05:33:27;;;;;;;35.25;19.73;;;6.90;99.90;;;;;;5091396;28;20035;-81
2023/12/19 05:35:54;;;;;;;37.60;20.83;;;6.90;99.90;;;;;;5071921;28;20051;-80
2023/12/19 05:38:21;;;;;;;33.38;20.80;;;6.90;99.90;;;;;;5057332;28;20027;-80
2023/12/19 05:40:48;;;;;;;37.10;22.17;;;7.00;99.90;;;;;;5070772;28;20040;-79
2023/12/19 05:43:15;;;;;;;40.80;21.90;;;7.00;99.90;;;;;;5095395;28;20353;-78
2023/12/19 05:45:42;;;;;;;42.67;22.90;;;7.00;99.90;;;;;;5077854;28;20355;-80
2023/12/19 05:48:08;;;;;;;35.03;21.50;;;7.00;99.90;;;;;;5073660;28;20031;-77
2023/12/19 05:50:35;;;;;;;42.28;22.98;;;7.00;99.90;;;;;;5058911;28;20038;-82
2023/12/19 05:53:01;;;;;;;41.17;23.02;;;7.00;99.90;;;;;;5094183;28;20024;-81
2023/12/19 05:55:27;;;;;;;40.78;23.35;;;7.00;99.90;;;;;;5073682;28;20038;-82
2023/12/19 05:57:54;;;;;;;44.38;23.42;;;7.00;99.90;;;;;;5095226;27;20036;-78
2023/12/19 06:00:21;;;;;;;51.33;26.38;;;7.10;99.90;;;;;;5093210;27;20023;-82
2023/12/19 06:02:51;;;;;;;42.30;22.02;;;7.10;99.90;;;;;;5060624;28;20039;-83
2023/12/19 06:05:17;;;;;;;35.22;21.90;;;7.10;99.90;;;;;;5098674;27;20035;-80
2023/12/19 06:07:44;;;;;;;40.45;24.02;;;7.10;99.90;;;;;;5098967;27;20031;-86
2023/12/19 06:10:12;;;;;;;41.55;23.38;;;7.10;99.90;;;;;;5079925;27;20051;-85
2023/12/19 06:12:39;;;;;;;44.58;24.52;;;7.10;99.90;;;;;;5064778;27;20039;-77
2023/12/19 06:15:11;;;;;;;41.80;24.15;;;7.20;99.90;;;;;;5064708;27;20032;-85
2023/12/19 06:17:42;;;;;;;51.70;25.98;;;7.20;99.90;;;;;;5065187;28;20888;-77
2023/12/19 06:20:12;;;;;;;49.33;25.55;;;7.20;99.90;;;;;;5078146;28;20027;-87
2023/12/19 06:22:41;;;;;;;50.88;28.02;;;7.20;99.90;;;;;;5094723;27;20422;-87
2023/12/19 06:25:07;;;;;;;48.13;25.25;;;7.20;99.90;;;;;;5077944;28;20024;-75
2023/12/19 06:27:35;;;;;;;55.15;28.55;;;7.20;99.90;;;;;;5076664;28;20399;-84
2023/12/19 06:30:05;;;;;;;46.33;25.58;;;7.20;99.90;;;;;;5062231;27;20032;-83
2023/12/19 06:32:32;;;;;;;45.60;25.40;;;7.20;99.90;;;;;;5078211;28;20113;-86
2023/12/19 06:34:58;;;;;;;40.55;22.33;;;7.30;99.90;;;;;;5079366;28;20039;-84
2023/12/19 06:37:25;;;;;;;52.92;28.25;;;7.30;99.90;;;;;;5113476;27;20030;-82
2023/12/19 06:39:51;;;;;;;52.10;28.20;;;7.30;99.90;;;;;;5084291;27;20032;-81
2023/12/19 06:42:17;;;;;;;51.45;28.02;;;7.30;99.90;;;;;;5080173;28;20716;-82
2023/12/19 06:44:44;;;;;;;50.67;29.13;;;7.30;99.90;;;;;;5063097;28;20024;-84
2023/12/19 06:47:11;;;;;;;54.08;29.70;;;7.30;99.90;;;;;;5094542;27;20042;-84
2023/12/19 06:49:38;;;;;;;56.83;29.60;;;7.30;99.90;;;;;;5044605;28;20035;-82
2023/12/19 06:52:05;;;;;;;52.50;28.58;;;7.30;99.90;;;;;;5076283;28;20042;-83
2023/12/19 06:54:32;;;;;;;52.22;28.65;;;7.30;99.90;;;;;;5095333;27;20278;-82
2023/12/19 06:56:58;;;;;;;60.92;32.72;;;7.30;99.90;;;;;;5073875;28;20042;-73
2023/12/19 06:59:27;;;;;;;55.58;29.90;;;7.30;99.90;;;;;;5076478;27;20034;-81
2023/12/19 07:01:53;;;;;;;59.70;32.25;;;7.30;99.90;;;;;;5074138;28;20048;-82
2023/12/19 07:04:20;;;;;;;66.32;34.35;;;7.30;99.90;;;;;;5076744;28;20405;-76
2023/12/19 07:06:46;;;;;;;56.35;30.95;;;7.30;99.90;;;;;;5058953;28;20209;-83
2023/12/19 07:09:14;;;;;;;68.28;35.47;;;7.30;99.90;;;;;;5078721;28;20036;-80
2023/12/19 07:11:41;;;;;;;67.80;33.38;;;7.30;99.90;;;;;;5075518;28;20036;-82
2023/12/19 07:14:08;;;;;;;62.60;33.03;;;7.30;99.90;;;;;;5075490;28;20474;-80
2023/12/19 07:16:35;;;;;;;53.58;31.80;;;7.30;99.90;;;;;;5063915;28;20593;-78
2023/12/19 07:19:01;;;;;;;58.38;32.45;;;7.40;99.90;;;;;;5056423;28;20031;-80
2023/12/19 07:21:29;;;;;;;69.05;36.08;;;7.30;99.90;;;;;;5075384;28;20040;-81
2023/12/19 07:23:55;;;;;;;67.05;37.55;;;7.40;99.90;;;;;;5061306;28;20410;-79
2023/12/19 07:26:23;;;;;;;62.42;34.72;;;7.40;99.90;;;;;;5073834;28;20028;-81
2023/12/19 07:28:51;;;;;;;70.53;37.35;;;7.40;99.90;;;;;;5106404;27;20919;-77
2023/12/19 07:31:33;;;;;;;76.45;38.47;;;7.40;99.90;;;;;;5042528;28;20031;-86
2023/12/19 07:34:01;;;;;;;65.03;36.97;;;7.40;99.90;;;;;;5057570;28;20418;-85
2023/12/19 07:36:28;;;;;;;70.82;37.80;;;7.40;99.90;;;;;;5057238;28;20467;-84
2023/12/19 07:38:54;;;;;;;61.92;34.55;;;7.40;99.90;;;;;;5081701;28;20371;-81
2023/12/19 07:41:22;;;;;;;60.58;34.22;;;7.40;99.90;;;;;;5093695;27;20036;-83
2023/12/19 07:43:49;;;;;;;68.88;34.42;;;7.40;99.90;;;;;;5074026;28;20038;-88
2023/12/19 07:46:16;;;;;;;64.80;35.38;;;7.40;99.90;;;;;;5076981;28;20043;-82
2023/12/19 07:48:42;;;;;;;82.75;39.58;;;7.40;99.90;;;;;;5074594;28;20042;-85
2023/12/19 07:51:19;;;;;;;75.63;41.38;;;7.40;99.90;;;;;;5093177;27;20493;-83
2023/12/19 07:53:46;;;;;;;82.22;43.90;;;7.40;99.90;;;;;;5074282;27;20035;-88
2023/12/19 07:56:13;;;;;;;97.10;44.83;;;7.40;99.90;;;;;;5075614;27;20032;-83
2023/12/19 07:58:39;;;;;;;86.05;42.63;;;7.50;99.90;;;;;;5074035;28;20028;-75
2023/12/19 08:01:09;;;;;;;99.35;47.25;;;7.50;99.90;;;;;;5074701;28;20134;-83
2023/12/19 08:03:37;;;;;;;106.07;49.67;;;7.50;99.90;;;;;;5052623;28;20040;-76
2023/12/19 08:06:03;;;;;;;93.40;47.63;;;7.50;99.90;;;;;;5074782;28;20032;-85
2023/12/19 08:08:29;;;;;;;99.22;46.78;;;7.50;99.90;;;;;;5057035;28;20700;-86
2023/12/19 08:10:56;;;;;;;104.40;51.28;;;7.50;99.90;;;;;;5056385;28;20062;-85
2023/12/19 08:13:22;;;;;;;103.45;49.90;;;7.50;99.90;;;;;;5071913;28;20039;-74
2023/12/19 08:15:49;;;;;;;105.97;49.70;;;7.50;99.90;;;;;;5056111;28;20040;-81
2023/12/19 08:18:16;;;;;;;104.68;51.15;;;7.50;99.90;;;;;;5086558;28;20032;-80
2023/12/19 08:20:43;;;;;;;127.20;56.13;;;7.60;99.90;;;;;;5089422;27;20489;-82
2023/12/19 08:23:09;;;;;;;104.07;52.47;;;7.60;99.90;;;;;;5074818;28;20030;-80
2023/12/19 08:25:37;;;;;;;116.85;53.58;;;7.60;99.90;;;;;;5056163;28;20042;-81
2023/12/19 08:28:04;;;;;;;106.53;51.33;;;7.60;99.90;;;;;;5086736;27;20039;-83
2023/12/19 08:30:30;;;;;;;113.10;55.05;;;7.60;99.90;;;;;;5072727;28;20040;-75
2023/12/19 08:32:57;;;;;;;108.90;51.85;;;7.60;99.90;;;;;;5072768;27;20040;-81
2023/12/19 08:35:24;;;;;;;111.07;51.30;;;7.60;99.90;;;;;;5054998;27;20032;-85
2023/12/19 08:37:51;;;;;;;134.85;56.20;;;7.70;99.90;;;;;;5059603;28;20475;-83
2023/12/19 08:40:18;;;;;;;115.38;54.22;;;7.60;99.90;;;;;;5043253;28;20477;-80
2023/12/19 08:42:45;;;;;;;113.22;51.65;;;7.70;99.90;;;;;;5057653;28;20514;-78
2023/12/19 08:45:22;;;;;;;106.65;50.55;;;7.70;99.90;;;;;;5094271;28;20494;-80
2023/12/19 08:47:50;;;;;;;108.15;52.30;;;7.70;99.90;;;;;;5093433;27;20097;-80
2023/12/19 08:50:17;;;;;;;111.80;50.28;;;7.70;99.90;;;;;;5091126;28;20379;-79
2023/12/19 08:52:44;;;;;;;101.63;50.30;;;7.70;99.90;;;;;;5056838;28;20043;-82
2023/12/19 08:55:11;;;;;;;99.35;48.22;;;7.70;99.90;;;;;;5108327;27;20398;-81
2023/12/19 08:57:42;;;;;;;96.90;47.92;;;7.70;99.90;;;;;;5057965;28;20031;-80
2023/12/19 09:00:16;;;;;;;98.63;48.70;;;7.80;99.90;;;;;;5073480;28;20031;-79
2023/12/19 09:02:43;;;;;;;93.90;47.72;;;7.70;99.90;;;;;;5061392;28;20057;-82
2023/12/19 09:05:17;;;;;;;105.32;49.83;;;7.80;99.90;;;;;;5081576;28;20031;-81
2023/12/19 09:07:48;;;;;;;96.90;47.38;;;7.80;99.90;;;;;;5057973;28;20036;-81
2023/12/19 09:10:15;;;;;;;106.65;51.45;;;7.80;99.90;;;;;;5068943;28;20031;-76
2023/12/19 09:12:42;;;;;;;105.05;49.63;;;7.80;99.90;;;;;;5088459;28;20028;-81
2023/12/19 09:15:10;;;;;;;122.35;55.70;;;7.80;99.90;;;;;;5074555;28;20031;-79
2023/12/19 09:17:36;;;;;;;96.25;48.85;;;7.80;99.90;;;;;;5090502;27;20059;-82
2023/12/19 09:20:06;;;;;;;107.35;49.92;;;7.80;99.90;;;;;;5078752;28;20036;-82
2023/12/19 09:22:32;;;;;;;98.55;46.13;;;7.90;99.90;;;;;;5062608;28;20428;-80
2023/12/19 09:24:59;;;;;;;86.20;44.00;;;7.90;99.90;;;;;;5096717;28;20032;-80
2023/12/19 09:27:25;;;;;;;84.55;43.72;;;7.90;99.90;;;;;;5079588;28;20037;-83
2023/12/19 09:29:52;;;;;;;73.60;40.70;;;7.90;99.90;;;;;;5060884;28;20028;-79
2023/12/19 09:32:19;;;;;;;75.45;40.70;;;7.90;99.90;;;;;;5059599;27;20067;-79
2023/12/19 09:34:46;;;;;;;83.60;42.80;;;7.90;99.90;;;;;;5045403;28;20035;-80
2023/12/19 09:37:13;;;;;;;79.43;42.20;;;7.90;99.90;;;;;;5060869;28;20040;-80
2023/12/19 09:39:39;;;;;;;76.40;41.85;;;7.90;99.90;;;;;;5078980;28;20371;-78
2023/12/19 09:42:06;;;;;;;77.22;42.88;;;7.90;99.90;;;;;;5097459;27;20031;-78
2023/12/19 09:44:33;;;;;;;77.18;41.42;;;7.90;99.90;;;;;;5061608;28;20055;-82
2023/12/19 09:46:59;;;;;;;68.45;37.80;;;7.90;99.90;;;;;;5079106;28;20036;-77
2023/12/19 09:49:28;;;;;;;62.22;36.05;;;7.90;99.90;;;;;;5063050;28;20046;-75
2023/12/19 09:51:57;;;;;;;61.60;37.03;;;7.90;99.90;;;;;;5077201;28;20745;-79
2023/12/19 09:54:24;;;;;;;59.95;35.33;;;7.90;99.90;;;;;;5078278;28;20528;-79
2023/12/19 09:56:52;;;;;;;55.38;34.42;;;7.90;99.90;;;;;;5046427;28;20046;-83
2023/12/19 09:59:19;;;;;;;60.25;34.53;;;7.90;99.90;;;;;;5059782;28;20028;-80
2023/12/19 10:01:46;;;;;;;57.00;33.05;;;7.90;99.90;;;;;;5061852;27;20043;-82
2023/12/19 10:04:17;;;;;;;52.67;30.88;;;7.90;99.90;;;;;;5097876;28;20023;-83
2023/12/19 10:06:58;;;;;;;65.88;36.92;;;7.90;99.90;;;;;;5062635;28;20449;-82
2023/12/19 10:09:25;;;;;;;61.88;36.22;;;7.90;99.90;;;;;;5079014;28;20525;-83
2023/12/19 10:12:09;;;;;;;57.67;34.15;;;7.90;99.90;;;;;;5059669;28;20044;-79
2023/12/19 10:14:36;;;;;;;57.50;32.67;;;7.90;99.90;;;;;;5076459;28;20505;-83
2023/12/19 10:17:04;;;;;;;56.20;31.10;;;7.90;99.90;;;;;;5079045;28;20027;-81
2023/12/19 10:19:33;;;;;;;55.10;32.10;;;7.90;99.90;;;;;;5062968;28;20036;-85
2023/12/19 10:22:12;;;;;;;52.88;31.05;;;8.00;99.90;;;;;;5079510;28;20035;-82
2023/12/19 10:24:39;;;;;;;59.33;33.70;;;8.00;99.90;;;;;;5091916;28;20039;-83
2023/12/19 10:27:06;;;;;;;62.65;32.40;;;8.00;99.90;;;;;;5060442;28;20043;-84
2023/12/19 10:29:36;;;;;;;58.42;33.78;;;8.00;99.90;;;;;;5111465;27;20027;-75
2023/12/19 10:32:12;;;;;;;56.70;33.80;;;8.00;99.90;;;;;;5060503;28;20058;-79
2023/12/19 10:34:38;;;;;;;68.72;36.97;;;8.00;99.90;;;;;;5074046;28;20032;-80
2023/12/19 10:37:18;;;;;;;55.45;32.67;;;8.00;99.90;;;;;;5097805;28;20039;-81
2023/12/19 10:39:44;;;;;;;56.92;33.50;;;8.00;99.90;;;;;;5090830;28;20028;-83
2023/12/19 10:42:11;;;;;;;58.25;34.38;;;8.00;99.90;;;;;;5045287;28;20493;-80
2023/12/19 10:44:39;;;;;;;49.85;30.20;;;8.00;99.90;;;;;;5076303;27;20066;-81
2023/12/19 10:47:10;;;;;;;57.83;33.88;;;8.00;99.90;;;;;;5044712;28;20040;-79
2023/12/19 10:49:38;;;;;;;58.08;33.15;;;8.00;99.90;;;;;;5089211;28;20032;-83
2023/12/19 10:52:08;;;;;;;60.55;35.65;;;8.00;99.90;;;;;;5065462;28;20042;-79
2023/12/19 10:54:35;;;;;;;59.00;33.47;;;8.00;99.90;;;;;;5097968;28;20051;-78
2023/12/19 10:57:18;;;;;;;51.05;30.77;;;8.00;99.90;;;;;;5063700;28;20058;-84
2023/12/19 11:00:00;;;;;;;58.45;34.33;;;8.00;99.90;;;;;;5060921;28;20027;-80
2023/12/19 11:02:54;;;;;;;54.95;32.95;;;8.10;99.90;;;;;;5060963;28;20248;-85
2023/12/19 11:05:25;;;;;;;61.22;34.42;;;8.10;99.90;;;;;;5077084;28;20506;-82
2023/12/19 11:07:55;;;;;;;63.42;35.58;;;8.10;99.90;;;;;;5076614;28;20040;-80
2023/12/19 11:10:22;;;;;;;52.85;31.38;;;8.00;99.90;;;;;;5062081;28;20395;-75
2023/12/19 11:12:53;;;;;;;51.10;30.75;;;8.00;99.90;;;;;;5075710;28;20032;-81
2023/12/19 11:15:21;;;;;;;58.03;33.97;;;8.10;99.90;;;;;;5073541;28;20039;-84
2023/12/19 11:18:05;;;;;;;53.20;31.13;;;8.00;99.90;;;;;;5077539;28;20044;-83
2023/12/19 11:20:45;;;;;;;56.22;32.63;;;8.10;99.90;;;;;;5060587;28;20044;-82
2023/12/19 11:23:21;;;;;;;47.22;28.73;;;8.10;99.90;;;;;;5079998;28;20042;-82
2023/12/19 11:25:57;;;;;;;54.08;30.35;;;8.10;99.90;;;;;;5078762;28;20387;-76
2023/12/19 11:28:26;;;;;;;38.55;24.38;;;8.10;99.90;;;;;;5107752;27;20047;-79
2023/12/19 11:30:52;;;;;;;40.17;26.42;;;8.10;99.90;;;;;;5078130;27;20035;-84
2023/12/19 11:33:29;;;;;;;62.20;36.00;;;8.10;99.90;;;;;;5076624;28;20039;-82
2023/12/19 11:35:56;;;;;;;49.40;29.55;;;8.10;99.90;;;;;;5076600;28;20031;-84
2023/12/19 11:38:26;;;;;;;46.25;29.15;;;8.10;99.90;;;;;;5094241;27;20035;-83
2023/12/19 11:40:57;;;;;;;43.80;28.63;;;8.10;99.90;;;;;;5075285;28;20043;-80
2023/12/19 11:43:35;;;;;;;45.30;29.77;;;8.10;99.90;;;;;;5095038;28;20023;-84
2023/12/19 11:46:06;;;;;;;47.30;28.10;;;8.10;99.90;;;;;;5077341;28;20086;-83
2023/12/19 11:48:46;;;;;;;68.43;39.17;;;8.10;99.90;;;;;;5066215;27;20053;-82
2023/12/19 11:51:14;;;;;;;57.08;34.63;;;8.20;99.90;;;;;;5095935;27;20040;-83
2023/12/19 11:53:41;;;;;;;47.30;29.50;;;8.20;99.90;;;;;;5062709;28;20036;-85
2023/12/19 11:56:09;;;;;;;43.47;28.20;;;8.20;99.90;;;;;;5059737;28;20038;-82
2023/12/19 11:58:51;;;;;;;44.40;27.98;;;8.20;99.90;;;;;;5078631;27;20032;-85
2023/12/19 12:01:22;;;;;;;45.95;26.60;;;8.20;99.90;;;;;;5078201;28;20040;-84
2023/12/19 12:03:49;;;;;;;39.95;25.77;;;8.20;99.90;;;;;;5063157;28;20036;-81
2023/12/19 12:06:19;;;;;;;46.58;28.77;;;8.20;99.90;;;;;;5093640;28;20418;-85
2023/12/19 12:08:55;;;;;;;38.25;26.83;;;8.20;99.90;;;;;;5042719;28;20027;-83
2023/12/19 12:11:21;;;;;;;45.25;29.50;;;8.20;99.90;;;;;;5058911;28;20627;-83
2023/12/19 12:14:03;;;;;;;45.85;28.50;;;8.20;99.90;;;;;;5072832;28;20366;-83
2023/12/19 12:16:37;;;;;;;38.45;23.60;;;8.20;99.90;;;;;;5074478;28;20027;-83
2023/12/19 12:19:13;;;;;;;36.55;23.17;;;8.20;99.90;;;;;;5075616;28;20027;-80
2023/12/19 12:21:44;;;;;;;34.33;22.98;;;8.20;99.90;;;;;;5058742;28;20024;-81
2023/12/19 12:24:21;;;;;;;33.60;22.42;;;8.20;99.90;;;;;;5074267;28;20398;-84
2023/12/19 12:26:49;;;;;;;36.42;24.38;;;8.20;99.90;;;;;;5071416;28;20100;-81
2023/12/19 12:29:18;;;;;;;40.05;25.92;;;8.20;99.90;;;;;;5056579;27;20046;-79
2023/12/19 12:31:47;;;;;;;36.35;24.48;;;8.20;99.90;;;;;;5037914;28;20047;-81
2023/12/19 12:34:17;;;;;;;36.08;24.55;;;8.20;99.90;;;;;;5055795;28;20039;-79
2023/12/19 12:36:49;;;;;;;38.38;24.52;;;8.20;99.90;;;;;;5056525;28;20382;-81
2023/12/19 12:39:22;;;;;;;33.28;21.13;;;8.20;99.90;;;;;;5076559;28;20032;-77